Time;durP1;ratioP1;P1;durP2;ratioP2;P2;SDS_P1;SDS_P2;PMS_P1;PMS_P2;Temp;Humidity;BMP_temperature;BMP_pressure;BME280_temperature;BME280_humidity;BME280_pressure;Samples;Min_cycle;Max_cycle;Signal;HPM_P1;HPM_P2
2023/11/23 00:00:53;;;;;;;42.80;21.97;;;7.90;99.90;;;;;;5044617;28;20022;-83
2023/11/23 00:03:19;;;;;;;39.87;22.37;;;7.90;99.90;;;;;;5025481;28;20041;-82
2023/11/23 00:05:44;;;;;;;35.60;20.40;;;7.90;99.90;;;;;;5027065;28;20037;-82
2023/11/23 00:08:11;;;;;;;35.83;19.97;;;8.00;99.90;;;;;;5059098;28;20489;-82
2023/11/23 00:10:37;;;;;;;38.17;19.00;;;7.90;99.90;;;;;;5026642;28;20645;-82
2023/11/23 00:13:03;;;;;;;35.47;19.37;;;7.90;99.90;;;;;;5027162;28;20030;-82
2023/11/23 00:15:28;;;;;;;37.30;21.23;;;8.00;99.90;;;;;;5025531;28;20033;-83
2023/11/23 00:17:54;;;;;;;39.80;22.80;;;8.00;99.90;;;;;;5033254;28;20044;-83
2023/11/23 00:20:20;;;;;;;37.17;22.93;;;8.00;99.90;;;;;;5054877;28;20013;-82
2023/11/23 00:22:46;;;;;;;38.70;22.17;;;8.00;99.90;;;;;;5023132;28;20124;-82
2023/11/23 00:25:14;;;;;;;38.60;22.47;;;8.00;99.90;;;;;;5024700;28;20105;-82
2023/11/23 00:27:40;;;;;;;38.47;21.67;;;8.10;99.90;;;;;;5042753;28;20044;-82
2023/11/23 00:30:06;;;;;;;35.80;22.00;;;8.10;99.90;;;;;;5043240;28;20032;-82
2023/11/23 00:32:33;;;;;;;45.53;23.60;;;8.10;99.90;;;;;;5041808;28;20025;-81
2023/11/23 00:34:58;;;;;;;42.97;24.60;;;8.10;99.90;;;;;;5043360;28;20077;-82
2023/11/23 00:37:24;;;;;;;38.00;22.60;;;8.10;99.90;;;;;;5041545;28;20018;-82
2023/11/23 00:39:50;;;;;;;44.17;24.40;;;8.10;99.90;;;;;;5043193;28;20028;-83
2023/11/23 00:42:16;;;;;;;37.43;23.63;;;8.10;99.90;;;;;;5041876;28;20030;-82
2023/11/23 00:44:41;;;;;;;43.37;23.93;;;8.10;99.90;;;;;;5026662;28;20025;-83
2023/11/23 00:47:07;;;;;;;45.17;25.10;;;8.10;99.90;;;;;;5042610;28;20061;-83
2023/11/23 00:49:35;;;;;;;42.27;23.67;;;8.10;99.90;;;;;;5041912;28;20013;-82
2023/11/23 00:52:01;;;;;;;36.10;22.83;;;8.10;99.90;;;;;;5043406;28;20022;-82
2023/11/23 00:54:37;;;;;;;42.17;23.53;;;8.20;99.90;;;;;;5024693;28;20044;-82
2023/11/23 00:57:06;;;;;;;39.07;22.53;;;8.10;99.90;;;;;;5042945;28;20017;-82
2023/11/23 00:59:32;;;;;;;41.40;24.17;;;8.20;99.90;;;;;;5041692;28;20017;-83
2023/11/23 01:02:00;;;;;;;41.47;24.60;;;8.20;99.90;;;;;;5042241;28;20535;-83
2023/11/23 01:04:27;;;;;;;48.10;25.13;;;8.20;99.90;;;;;;5026151;28;20076;-83
2023/11/23 01:06:53;;;;;;;43.43;25.57;;;8.30;99.90;;;;;;5041209;28;20441;-83
2023/11/23 01:09:19;;;;;;;43.47;24.43;;;8.20;99.90;;;;;;5026010;28;20049;-83
2023/11/23 01:11:45;;;;;;;40.63;22.67;;;8.30;99.90;;;;;;5040902;28;20021;-83
2023/11/23 01:14:10;;;;;;;40.57;23.83;;;8.30;99.90;;;;;;5043734;28;20494;-83
2023/11/23 01:16:36;;;;;;;39.73;25.23;;;8.30;99.90;;;;;;5041290;28;20025;-83
2023/11/23 01:19:02;;;;;;;44.37;25.97;;;8.30;99.90;;;;;;5042196;28;20045;-83
2023/11/23 01:21:28;;;;;;;48.43;25.60;;;8.30;99.90;;;;;;5042218;28;20053;-83
2023/11/23 01:23:54;;;;;;;42.53;25.10;;;8.40;99.90;;;;;;5041051;28;20033;-82
2023/11/23 01:26:19;;;;;;;44.70;25.67;;;8.40;99.90;;;;;;5042520;28;20033;-83
2023/11/23 01:28:45;;;;;;;43.23;24.23;;;8.40;99.90;;;;;;5041720;28;20026;-83
2023/11/23 01:31:11;;;;;;;38.17;23.97;;;8.40;99.90;;;;;;5042463;28;20030;-83
2023/11/23 01:33:36;;;;;;;41.60;24.83;;;8.40;99.90;;;;;;5041064;28;20033;-83
2023/11/23 01:36:02;;;;;;;38.87;23.87;;;8.50;99.90;;;;;;5041944;28;20018;-82
2023/11/23 01:38:28;;;;;;;43.70;26.60;;;8.50;99.90;;;;;;5041915;28;20112;-81
2023/11/23 01:40:56;;;;;;;41.37;25.40;;;8.50;99.90;;;;;;5041194;28;20108;-81
2023/11/23 01:43:22;;;;;;;37.73;25.07;;;8.50;99.90;;;;;;5043558;28;20072;-81
2023/11/23 01:45:48;;;;;;;38.47;21.40;;;8.60;99.90;;;;;;5042138;28;20120;-82
2023/11/23 01:48:15;;;;;;;43.63;25.77;;;8.60;99.90;;;;;;5042429;28;20030;-82
2023/11/23 01:50:42;;;;;;;37.50;23.00;;;8.60;99.90;;;;;;5040934;28;20464;-81
2023/11/23 01:53:09;;;;;;;42.50;23.60;;;8.70;99.90;;;;;;5042406;28;20510;-81
2023/11/23 01:55:35;;;;;;;39.00;21.83;;;8.70;99.90;;;;;;5041614;28;20025;-81
2023/11/23 01:58:04;;;;;;;35.43;21.60;;;8.70;99.90;;;;;;5024681;28;20116;-80
2023/11/23 02:00:30;;;;;;;41.20;24.53;;;8.70;99.90;;;;;;5025580;28;20045;-80
2023/11/23 02:02:59;;;;;;;38.07;23.77;;;8.70;99.90;;;;;;5040420;28;20390;-81
2023/11/23 02:05:25;;;;;;;42.80;24.97;;;8.80;99.90;;;;;;5041991;28;20056;-82
2023/11/23 02:07:51;;;;;;;38.53;23.13;;;8.80;99.90;;;;;;5040485;28;20026;-81
2023/11/23 02:10:18;;;;;;;37.97;22.93;;;8.80;99.90;;;;;;5041698;28;20017;-81
2023/11/23 02:12:48;;;;;;;31.60;21.73;;;8.80;99.90;;;;;;5042769;28;20045;-81
2023/11/23 02:15:14;;;;;;;36.30;21.40;;;8.90;99.90;;;;;;5042443;28;20029;-82
2023/11/23 02:17:40;;;;;;;38.87;23.63;;;8.90;99.90;;;;;;5043022;28;20045;-82
2023/11/23 02:20:08;;;;;;;38.20;22.63;;;8.90;99.90;;;;;;5040153;28;20041;-83
2023/11/23 02:22:35;;;;;;;37.27;21.23;;;8.90;99.90;;;;;;5042227;28;20025;-83
2023/11/23 02:25:01;;;;;;;41.20;24.10;;;9.00;99.90;;;;;;5045910;28;20493;-83
2023/11/23 02:27:27;;;;;;;48.50;26.40;;;9.00;99.90;;;;;;5044973;28;20068;-83
2023/11/23 02:29:53;;;;;;;37.47;23.87;;;9.00;99.90;;;;;;5045284;28;20079;-82
2023/11/23 02:32:18;;;;;;;36.90;23.80;;;9.00;99.90;;;;;;5044546;28;20056;-82
2023/11/23 02:34:44;;;;;;;37.60;22.40;;;9.10;99.90;;;;;;5045397;28;20117;-84
2023/11/23 02:37:10;;;;;;;36.73;23.97;;;9.10;99.90;;;;;;5044074;28;20045;-84
2023/11/23 02:39:35;;;;;;;36.10;22.67;;;9.10;99.90;;;;;;5045551;28;20067;-83
2023/11/23 02:42:01;;;;;;;32.47;21.67;;;9.10;99.90;;;;;;5043795;28;20075;-83
2023/11/23 02:44:27;;;;;;;40.13;23.07;;;9.20;99.90;;;;;;5045549;28;20474;-83
2023/11/23 02:46:52;;;;;;;32.97;21.83;;;9.20;99.90;;;;;;5044244;28;20033;-83
2023/11/23 02:49:18;;;;;;;37.67;21.23;;;9.20;99.90;;;;;;5044767;28;20557;-83
2023/11/23 02:51:45;;;;;;;31.90;21.77;;;9.20;99.90;;;;;;5045364;28;20120;-84
2023/11/23 02:54:11;;;;;;;32.20;20.43;;;9.20;99.90;;;;;;5043905;28;20013;-84
2023/11/23 02:56:36;;;;;;;34.77;21.10;;;9.20;99.90;;;;;;5045002;28;20441;-83
2023/11/23 02:59:03;;;;;;;34.20;21.17;;;9.30;99.90;;;;;;5043538;28;20032;-84
2023/11/23 03:01:32;;;;;;;31.90;21.23;;;9.30;99.90;;;;;;5045101;28;20021;-84
2023/11/23 03:03:58;;;;;;;32.77;20.03;;;9.30;99.90;;;;;;5044184;28;20032;-84
2023/11/23 03:06:23;;;;;;;36.63;21.10;;;9.40;99.90;;;;;;5044297;28;20041;-84
2023/11/23 03:08:51;;;;;;;30.83;20.93;;;9.40;99.90;;;;;;5045057;28;20028;-84
2023/11/23 03:11:20;;;;;;;32.43;21.80;;;9.40;99.90;;;;;;5026409;28;20071;-84
2023/11/23 03:13:47;;;;;;;40.53;21.60;;;9.40;99.90;;;;;;5044940;28;20025;-83
2023/11/23 03:16:13;;;;;;;38.17;23.20;;;9.50;99.90;;;;;;5043280;28;20071;-82
2023/11/23 03:18:39;;;;;;;36.23;20.70;;;9.50;99.90;;;;;;5044425;28;20077;-83
2023/11/23 03:21:05;;;;;;;31.47;20.80;;;9.50;99.90;;;;;;5043928;28;20080;-83
2023/11/23 03:23:30;;;;;;;31.93;20.93;;;9.50;99.90;;;;;;5043845;28;20018;-82
2023/11/23 03:25:56;;;;;;;31.03;21.07;;;9.60;99.90;;;;;;5044034;28;20033;-84
2023/11/23 03:28:22;;;;;;;33.20;21.37;;;9.60;99.90;;;;;;5042850;28;20010;-84
2023/11/23 03:30:49;;;;;;;32.53;20.97;;;9.60;99.90;;;;;;5044215;28;20021;-83
2023/11/23 03:33:15;;;;;;;34.67;20.47;;;9.60;99.90;;;;;;5043056;28;20041;-84
2023/11/23 03:35:41;;;;;;;33.00;20.53;;;9.70;99.90;;;;;;5044653;28;20051;-83
2023/11/23 03:38:07;;;;;;;32.23;20.23;;;9.70;99.90;;;;;;5044795;28;20022;-84
2023/11/23 03:40:33;;;;;;;30.07;18.47;;;9.70;99.90;;;;;;5043842;28;20026;-83
2023/11/23 03:42:59;;;;;;;30.83;19.37;;;9.70;99.90;;;;;;5044272;28;20044;-83
2023/11/23 03:45:25;;;;;;;31.80;18.93;;;9.80;99.90;;;;;;5042708;28;20017;-83
2023/11/23 03:47:52;;;;;;;32.83;19.30;;;9.70;99.90;;;;;;5044315;28;20020;-83
2023/11/23 03:50:18;;;;;;;34.47;19.77;;;9.70;99.90;;;;;;5043984;28;20022;-83
2023/11/23 03:52:43;;;;;;;31.93;19.07;;;9.80;99.90;;;;;;5044279;28;20489;-84
2023/11/23 03:55:09;;;;;;;33.00;18.17;;;9.80;99.90;;;;;;5042688;28;20010;-84
2023/11/23 03:57:39;;;;;;;31.27;19.02;;;9.80;99.90;;;;;;5043591;28;20505;-84
2023/11/23 04:00:06;;;;;;;36.30;21.25;;;9.80;99.90;;;;;;5043935;28;20018;-84
2023/11/23 04:02:33;;;;;;;34.30;19.50;;;9.80;99.90;;;;;;5042674;28;20017;-85
2023/11/23 04:04:58;;;;;;;35.37;20.43;;;9.80;99.90;;;;;;5043671;28;20017;-84
2023/11/23 04:07:24;;;;;;;28.87;18.60;;;9.80;99.90;;;;;;5042267;28;20033;-84
2023/11/23 04:09:50;;;;;;;31.23;19.50;;;9.80;99.90;;;;;;5027128;28;20048;-83
2023/11/23 04:12:16;;;;;;;30.20;19.77;;;9.90;99.90;;;;;;5043795;28;20036;-84
2023/11/23 04:14:42;;;;;;;29.10;19.10;;;9.90;99.90;;;;;;5026724;28;20022;-83
2023/11/23 04:17:07;;;;;;;31.13;20.27;;;9.90;99.90;;;;;;5043326;28;20024;-83
2023/11/23 04:19:33;;;;;;;27.93;18.23;;;9.90;99.90;;;;;;5042353;28;20050;-83
2023/11/23 04:22:03;;;;;;;27.67;17.63;;;9.90;99.90;;;;;;5043619;28;20021;-82
2023/11/23 04:24:29;;;;;;;27.43;18.40;;;9.90;99.90;;;;;;5041952;28;20025;-83
2023/11/23 04:26:54;;;;;;;28.10;18.60;;;10.00;99.90;;;;;;5043231;28;20040;-82
2023/11/23 04:29:20;;;;;;;32.70;18.27;;;9.90;99.90;;;;;;5041417;28;20025;-82
2023/11/23 04:31:46;;;;;;;29.63;17.23;;;10.00;99.90;;;;;;5043252;28;20036;-82
2023/11/23 04:34:12;;;;;;;26.10;16.03;;;10.00;99.90;;;;;;5043137;28;20021;-80
2023/11/23 04:36:37;;;;;;;27.70;16.53;;;10.00;99.90;;;;;;5042175;28;20509;-82
2023/11/23 04:39:04;;;;;;;27.87;18.20;;;10.00;99.90;;;;;;5042858;28;20025;-83
2023/11/23 04:41:30;;;;;;;28.73;16.30;;;10.10;99.90;;;;;;5041535;28;20029;-83
2023/11/23 04:43:56;;;;;;;32.83;18.00;;;10.10;99.90;;;;;;5043249;28;20045;-84
2023/11/23 04:46:22;;;;;;;28.33;16.77;;;10.10;99.90;;;;;;5041152;28;20030;-84
2023/11/23 04:48:47;;;;;;;29.75;16.50;;;10.10;99.90;;;;;;5043229;28;20028;-85
2023/11/23 04:51:15;;;;;;;23.93;16.33;;;10.10;99.90;;;;;;5042334;28;20026;-84
2023/11/23 04:53:42;;;;;;;25.30;15.43;;;10.10;99.90;;;;;;5043251;28;20076;-84
2023/11/23 04:56:08;;;;;;;32.35;16.63;;;10.20;99.90;;;;;;5026633;28;20026;-84
2023/11/23 04:58:33;;;;;;;27.17;16.33;;;10.20;99.90;;;;;;5042895;28;20457;-84
2023/11/23 05:01:00;;;;;;;32.40;16.03;;;10.20;99.90;;;;;;5042991;28;20024;-84
2023/11/23 05:03:28;;;;;;;27.25;15.73;;;10.20;99.90;;;;;;5041195;28;20028;-83
2023/11/23 05:05:54;;;;;;;24.05;14.18;;;10.20;99.90;;;;;;5042290;28;20141;-84
2023/11/23 05:08:20;;;;;;;25.95;15.30;;;10.20;99.90;;;;;;5042334;28;20056;-83
2023/11/23 05:10:46;;;;;;;31.47;16.90;;;10.20;99.90;;;;;;5041986;28;20018;-84
2023/11/23 05:13:12;;;;;;;28.37;15.30;;;10.20;99.90;;;;;;5026360;28;20033;-84
2023/11/23 05:15:38;;;;;;;26.90;16.38;;;10.20;99.90;;;;;;5041203;28;20613;-84
2023/11/23 05:18:04;;;;;;;28.03;16.40;;;10.20;99.90;;;;;;5042680;28;20073;-83
2023/11/23 05:20:30;;;;;;;24.33;14.55;;;10.20;99.90;;;;;;5040646;28;20471;-83
2023/11/23 05:22:56;;;;;;;28.43;15.37;;;10.20;99.90;;;;;;5042443;28;20041;-83
2023/11/23 05:25:21;;;;;;;23.60;14.18;;;10.20;99.90;;;;;;5043014;28;20052;-83
2023/11/23 05:27:47;;;;;;;26.93;14.60;;;10.20;99.90;;;;;;5041454;28;20150;-82
2023/11/23 05:30:13;;;;;;;23.15;13.80;;;10.10;99.90;;;;;;5042482;28;20018;-82
2023/11/23 05:32:38;;;;;;;24.50;13.27;;;10.10;99.90;;;;;;5040533;28;20060;-81
2023/11/23 05:35:06;;;;;;;22.03;12.70;;;10.10;99.90;;;;;;5043301;28;20399;-82
2023/11/23 05:37:32;;;;;;;20.30;13.30;;;10.10;99.90;;;;;;5043127;28;20029;-82
2023/11/23 05:39:58;;;;;;;20.33;13.67;;;10.10;99.90;;;;;;5026204;28;20025;-81
2023/11/23 05:42:24;;;;;;;24.17;13.47;;;10.00;99.90;;;;;;5044175;28;20033;-83
2023/11/23 05:44:50;;;;;;;22.60;13.63;;;10.00;99.90;;;;;;5044713;28;20021;-82
2023/11/23 05:47:15;;;;;;;25.33;15.37;;;10.00;99.90;;;;;;5045193;28;20033;-82
2023/11/23 05:49:41;;;;;;;27.83;14.63;;;10.00;99.90;;;;;;5043867;28;20021;-81
2023/11/23 05:52:07;;;;;;;25.80;14.13;;;10.10;99.90;;;;;;5045496;28;20025;-82
2023/11/23 05:54:33;;;;;;;21.97;12.47;;;10.10;99.90;;;;;;5043443;28;20028;-82
2023/11/23 05:56:59;;;;;;;24.73;13.03;;;10.10;99.90;;;;;;5045377;28;20025;-81
2023/11/23 05:59:24;;;;;;;20.63;13.23;;;10.00;99.90;;;;;;5047766;28;20013;-80
2023/11/23 06:01:50;;;;;;;24.70;14.52;;;10.00;99.90;;;;;;5049193;28;20059;-82
2023/11/23 06:04:17;;;;;;;25.47;14.80;;;10.00;99.90;;;;;;5049055;28;20029;-82
2023/11/23 06:06:42;;;;;;;25.95;14.75;;;10.10;99.90;;;;;;5065966;28;20044;-82
2023/11/23 06:09:11;;;;;;;27.02;14.57;;;10.00;99.90;;;;;;5048692;28;20029;-82
2023/11/23 06:11:37;;;;;;;26.58;16.95;;;10.00;99.90;;;;;;5081184;28;20024;-82
2023/11/23 06:14:03;;;;;;;30.17;16.60;;;10.10;99.90;;;;;;5082666;28;20478;-82
2023/11/23 06:16:28;;;;;;;30.25;17.05;;;10.00;99.90;;;;;;5081255;28;20471;-82
2023/11/23 06:18:54;;;;;;;26.60;16.73;;;10.10;99.90;;;;;;5081116;28;20067;-82
2023/11/23 06:21:20;;;;;;;30.90;17.53;;;10.20;99.90;;;;;;5048353;28;20040;-82
2023/11/23 06:23:47;;;;;;;30.85;18.20;;;10.20;99.90;;;;;;5047112;28;20028;-82
2023/11/23 06:26:13;;;;;;;26.30;18.53;;;10.20;99.90;;;;;;5061454;28;20035;-82
2023/11/23 06:28:39;;;;;;;25.20;16.93;;;10.20;99.90;;;;;;5066581;28;20474;-82
2023/11/23 06:31:05;;;;;;;33.63;18.42;;;10.20;99.90;;;;;;5056513;28;20024;-82
2023/11/23 06:33:31;;;;;;;34.67;18.95;;;10.20;99.90;;;;;;5044009;28;20029;-82
2023/11/23 06:35:57;;;;;;;28.57;18.83;;;10.20;99.90;;;;;;5048299;28;20070;-82
2023/11/23 06:38:27;;;;;;;28.40;18.10;;;10.20;99.90;;;;;;5047607;28;20311;-81
2023/11/23 06:40:55;;;;;;;31.02;17.83;;;10.30;99.90;;;;;;5044582;28;20043;-82
2023/11/23 06:43:20;;;;;;;34.92;18.38;;;10.30;99.90;;;;;;5047870;28;20588;-82
2023/11/23 06:45:46;;;;;;;29.38;17.55;;;10.30;99.90;;;;;;5046210;28;20067;-82
2023/11/23 06:48:12;;;;;;;29.52;17.27;;;10.30;99.90;;;;;;5081147;28;20088;-83
2023/11/23 06:50:38;;;;;;;29.40;18.77;;;10.30;99.90;;;;;;5046853;28;20025;-82
2023/11/23 06:53:03;;;;;;;32.33;18.80;;;10.40;99.90;;;;;;5048260;28;20025;-81
2023/11/23 06:55:29;;;;;;;28.40;16.65;;;10.30;99.90;;;;;;5047791;28;20047;-81
2023/11/23 06:57:54;;;;;;;26.03;16.20;;;10.30;99.90;;;;;;5045013;28;20017;-82
2023/11/23 07:00:23;;;;;;;29.30;15.90;;;10.30;99.90;;;;;;5029138;28;20025;-82
2023/11/23 07:02:50;;;;;;;25.38;16.20;;;10.30;99.90;;;;;;5026343;28;20122;-81
2023/11/23 07:05:18;;;;;;;29.33;15.55;;;10.30;99.90;;;;;;5062242;28;21296;-82
2023/11/23 07:07:44;;;;;;;28.45;16.30;;;10.30;99.90;;;;;;5061795;28;20025;-82
2023/11/23 07:10:12;;;;;;;25.88;15.52;;;10.30;99.90;;;;;;5047318;28;20025;-82
2023/11/23 07:12:38;;;;;;;24.23;15.52;;;10.30;99.90;;;;;;5065235;28;20029;-82
2023/11/23 07:15:04;;;;;;;29.00;15.65;;;10.30;99.90;;;;;;5079997;28;20367;-82
2023/11/23 07:17:29;;;;;;;24.48;15.32;;;10.40;99.90;;;;;;5047455;28;20025;-82
2023/11/23 07:19:56;;;;;;;27.70;15.00;;;10.40;99.90;;;;;;5046084;28;20024;-82
2023/11/23 07:22:23;;;;;;;23.60;15.02;;;10.30;99.90;;;;;;5065711;28;20570;-82
2023/11/23 07:24:49;;;;;;;25.33;14.48;;;10.40;99.90;;;;;;5064189;28;20482;-82
2023/11/23 07:27:15;;;;;;;31.63;13.32;;;10.40;99.90;;;;;;5046997;28;20040;-82
2023/11/23 07:29:40;;;;;;;24.98;14.45;;;10.30;99.90;;;;;;5065120;28;20058;-82
2023/11/23 07:32:08;;;;;;;27.00;13.82;;;10.30;99.90;;;;;;5046828;28;20041;-82
2023/11/23 07:34:35;;;;;;;26.85;14.85;;;10.30;99.90;;;;;;5047264;28;20025;-82
2023/11/23 07:37:00;;;;;;;24.83;14.73;;;10.30;99.90;;;;;;5046114;28;20032;-82
2023/11/23 07:39:26;;;;;;;26.27;15.30;;;10.30;99.90;;;;;;5047726;28;20360;-82
2023/11/23 07:41:53;;;;;;;26.08;14.73;;;10.30;99.90;;;;;;5079476;28;20029;-82
2023/11/23 07:44:22;;;;;;;23.80;13.87;;;10.30;99.90;;;;;;5048003;28;20025;-83
2023/11/23 07:46:48;;;;;;;26.60;13.50;;;10.30;99.90;;;;;;5046667;28;20040;-82
2023/11/23 07:49:14;;;;;;;26.20;14.93;;;10.30;99.90;;;;;;5046474;28;20043;-82
2023/11/23 07:51:40;;;;;;;23.53;13.10;;;10.30;99.90;;;;;;5047620;28;20021;-83
2023/11/23 07:54:06;;;;;;;26.02;13.25;;;10.40;99.90;;;;;;5046143;28;20025;-83
2023/11/23 07:56:34;;;;;;;26.17;13.13;;;10.40;99.90;;;;;;5047540;28;20023;-82
2023/11/23 07:59:00;;;;;;;24.17;12.57;;;10.40;99.90;;;;;;5045702;28;20029;-83
2023/11/23 08:01:26;;;;;;;27.40;13.80;;;10.40;99.90;;;;;;5047036;28;20025;-83
2023/11/23 08:03:51;;;;;;;25.48;12.80;;;10.40;99.90;;;;;;5064313;28;20025;-83
2023/11/23 08:06:17;;;;;;;22.25;13.27;;;10.50;99.90;;;;;;5046615;28;20045;-83
2023/11/23 08:08:43;;;;;;;22.58;11.82;;;10.50;99.90;;;;;;5047030;28;20021;-82
2023/11/23 08:11:09;;;;;;;20.52;11.95;;;10.50;99.90;;;;;;5045534;28;20017;-81
2023/11/23 08:13:35;;;;;;;19.95;12.50;;;10.50;99.90;;;;;;5047059;28;20022;-82
2023/11/23 08:16:03;;;;;;;20.27;11.65;;;10.50;99.90;;;;;;5045311;28;20041;-83
2023/11/23 08:18:29;;;;;;;22.10;12.52;;;10.50;99.90;;;;;;5064713;28;20053;-83
2023/11/23 08:20:57;;;;;;;21.45;11.88;;;10.60;99.90;;;;;;5044927;28;20025;-83
2023/11/23 08:23:23;;;;;;;22.05;13.68;;;10.50;99.90;;;;;;5046318;28;20029;-83
2023/11/23 08:25:49;;;;;;;25.63;13.27;;;10.60;99.90;;;;;;5046887;28;20029;-82
2023/11/23 08:28:16;;;;;;;21.65;12.20;;;10.60;99.90;;;;;;5045247;28;20024;-82
2023/11/23 08:30:42;;;;;;;20.80;13.00;;;10.60;99.90;;;;;;5046765;28;20112;-83
2023/11/23 08:33:08;;;;;;;22.60;12.70;;;10.60;99.90;;;;;;5045114;28;20021;-83
2023/11/23 08:35:34;;;;;;;25.60;12.98;;;10.60;99.90;;;;;;5046703;28;20025;-83
2023/11/23 08:38:00;;;;;;;22.77;13.30;;;10.60;99.90;;;;;;5045571;28;20084;-83
2023/11/23 08:40:26;;;;;;;28.95;13.38;;;10.60;99.90;;;;;;5046256;28;20029;-82
2023/11/23 08:42:52;;;;;;;22.95;13.25;;;10.70;99.90;;;;;;5046253;28;20021;-82
2023/11/23 08:45:18;;;;;;;20.63;12.98;;;10.60;99.90;;;;;;5044448;28;20043;-83
2023/11/23 08:47:44;;;;;;;24.73;13.32;;;10.70;99.90;;;;;;5046450;28;20025;-82
2023/11/23 08:50:10;;;;;;;26.55;13.77;;;10.70;99.90;;;;;;5044842;28;20036;-82
2023/11/23 08:52:37;;;;;;;24.33;13.68;;;10.70;99.90;;;;;;5046190;28;20025;-83
2023/11/23 08:55:04;;;;;;;21.25;11.82;;;10.70;99.90;;;;;;5044863;28;20037;-82
2023/11/23 08:57:30;;;;;;;22.90;12.68;;;10.70;99.90;;;;;;5045953;28;20047;-83
2023/11/23 08:59:56;;;;;;;22.05;13.15;;;10.80;99.90;;;;;;5045555;28;20024;-83
2023/11/23 09:02:21;;;;;;;19.58;12.18;;;10.80;99.90;;;;;;5044869;28;20025;-83
2023/11/23 09:04:47;;;;;;;23.20;12.63;;;10.80;99.90;;;;;;5046175;28;20036;-83
2023/11/23 09:07:13;;;;;;;20.75;12.52;;;10.80;99.90;;;;;;5077799;28;20086;-82
2023/11/23 09:09:39;;;;;;;19.98;10.90;;;10.80;99.90;;;;;;5046266;28;20056;-83
2023/11/23 09:12:05;;;;;;;20.20;12.48;;;10.90;99.90;;;;;;5044374;28;20029;-83
2023/11/23 09:14:31;;;;;;;20.40;10.88;;;10.90;99.90;;;;;;5045477;28;20029;-83
2023/11/23 09:16:57;;;;;;;20.75;11.60;;;10.90;99.90;;;;;;5045594;28;20562;-83
2023/11/23 09:19:22;;;;;;;24.98;12.73;;;11.00;99.90;;;;;;5044637;28;20056;-83
2023/11/23 09:21:50;;;;;;;22.25;12.38;;;11.00;99.90;;;;;;5063741;28;20048;-83
2023/11/23 09:24:16;;;;;;;17.92;10.43;;;11.10;99.90;;;;;;5044197;28;20072;-83
2023/11/23 09:26:42;;;;;;;21.08;10.80;;;11.10;99.90;;;;;;5045290;28;20033;-82
2023/11/23 09:29:07;;;;;;;18.80;11.52;;;11.10;99.90;;;;;;5043721;28;20032;-83
2023/11/23 09:31:34;;;;;;;23.52;10.07;;;11.20;99.90;;;;;;5045626;28;20021;-83
2023/11/23 09:34:00;;;;;;;21.80;11.05;;;11.20;99.90;;;;;;5045152;28;20048;-82
2023/11/23 09:36:29;;;;;;;18.42;9.98;;;11.20;99.90;;;;;;5044841;28;20145;-83
2023/11/23 09:38:55;;;;;;;18.05;11.15;;;11.30;99.90;;;;;;5045339;28;20048;-82
2023/11/23 09:41:24;;;;;;;15.45;9.80;;;11.30;99.90;;;;;;5043932;28;20386;-82
2023/11/23 09:43:51;;;;;;;23.38;10.13;;;11.40;99.90;;;;;;5045541;28;20104;-83
2023/11/23 09:46:19;;;;;;;19.20;9.80;;;11.40;99.90;;;;;;5043897;28;20077;-83
2023/11/23 09:48:45;;;;;;;21.13;10.50;;;11.40;99.90;;;;;;5045110;28;20061;-83
2023/11/23 09:51:11;;;;;;;16.95;9.45;;;11.40;99.90;;;;;;5059098;28;20451;-82
2023/11/23 09:53:37;;;;;;;18.40;9.60;;;11.40;99.90;;;;;;5061271;28;20032;-83
2023/11/23 09:56:04;;;;;;;23.00;9.63;;;11.40;99.90;;;;;;5061841;28;20045;-83
2023/11/23 09:58:30;;;;;;;18.10;9.75;;;11.50;99.90;;;;;;5038304;22;20051;-83
2023/11/23 10:01:02;;;;;;;20.40;9.52;;;11.50;99.90;;;;;;5000863;28;20037;-83
2023/11/23 10:03:34;;;;;;;18.02;9.32;;;11.50;99.90;;;;;;5002736;28;20038;-82
2023/11/23 10:06:01;;;;;;;24.88;9.55;;;11.50;99.90;;;;;;5001540;28;20038;-83
2023/11/23 10:08:30;;;;;;;17.95;8.45;;;11.60;99.90;;;;;;5002352;28;20085;-83
2023/11/23 10:10:59;;;;;;;20.65;9.18;;;11.60;99.90;;;;;;5002590;28;20038;-83
2023/11/23 10:13:25;;;;;;;15.02;8.27;;;11.60;99.90;;;;;;5001323;28;20031;-83
2023/11/23 10:15:50;;;;;;;16.10;8.18;;;11.60;99.90;;;;;;5002648;28;20076;-83
2023/11/23 10:18:17;;;;;;;14.80;7.35;;;11.60;99.90;;;;;;5000974;28;20532;-81
2023/11/23 10:20:46;;;;;;;13.20;6.93;;;11.60;99.90;;;;;;5004056;28;20057;-82
2023/11/23 10:23:13;;;;;;;13.88;7.28;;;11.60;99.90;;;;;;5001059;28;20458;-82
2023/11/23 10:25:41;;;;;;;20.25;7.53;;;11.70;99.90;;;;;;5001802;28;20026;-83
2023/11/23 10:28:07;;;;;;;14.30;6.85;;;11.80;99.90;;;;;;5002292;28;20022;-83
2023/11/23 10:30:36;;;;;;;12.40;6.38;;;11.80;99.90;;;;;;5000915;28;20377;-83
2023/11/23 10:33:04;;;;;;;17.33;7.00;;;11.80;99.90;;;;;;5003934;28;20049;-82
2023/11/23 10:35:45;;;;;;;18.30;6.53;;;11.80;99.90;;;;;;5000881;28;20511;-83
2023/11/23 10:38:13;;;;;;;14.82;7.03;;;11.90;99.90;;;;;;5003651;28;20065;-83
2023/11/23 10:40:39;;;;;;;13.95;6.70;;;11.90;99.90;;;;;;5001527;28;20057;-83
2023/11/23 10:43:09;;;;;;;15.52;6.35;;;11.90;99.90;;;;;;5001428;28;20153;-83
2023/11/23 10:45:39;;;;;;;12.82;6.10;;;11.90;99.90;;;;;;5006013;28;20026;-83
2023/11/23 10:48:06;;;;;;;13.55;6.40;;;11.90;99.90;;;;;;5004586;28;20022;-83
2023/11/23 10:50:35;;;;;;;19.42;6.60;;;11.90;99.90;;;;;;5005872;28;20028;-83
2023/11/23 10:53:02;;;;;;;13.40;6.13;;;11.90;99.90;;;;;;5003844;28;20022;-83
2023/11/23 10:55:27;;;;;;;13.07;5.55;;;11.90;99.90;;;;;;5005575;28;20018;-83
2023/11/23 10:58:05;;;;;;;15.07;5.88;;;12.00;99.90;;;;;;5008506;28;20228;-83
2023/11/23 11:00:31;;;;;;;14.35;6.43;;;12.00;99.90;;;;;;5007636;28;20022;-83
2023/11/23 11:03:04;;;;;;;11.98;4.80;;;12.00;99.90;;;;;;5008833;28;20392;-83
2023/11/23 11:05:31;;;;;;;11.02;4.63;;;12.10;99.90;;;;;;5040162;28;20085;-82
2023/11/23 11:08:00;;;;;;;12.70;4.97;;;12.10;99.90;;;;;;5041793;28;20073;-83
2023/11/23 11:10:28;;;;;;;10.43;4.57;;;12.10;99.90;;;;;;5040673;28;20026;-83
2023/11/23 11:13:08;;;;;;;9.88;4.20;;;12.10;99.90;;;;;;5041117;28;20508;-83
2023/11/23 11:15:34;;;;;;;13.20;3.88;;;12.20;99.90;;;;;;5041571;28;20026;-83
2023/11/23 11:18:07;;;;;;;16.92;4.57;;;12.20;99.90;;;;;;5007085;28;20018;-82
2023/11/23 11:20:39;;;;;;;11.80;3.47;;;12.30;99.90;;;;;;5041754;28;20045;-83
2023/11/23 11:23:04;;;;;;;12.05;3.72;;;12.30;99.90;;;;;;5039930;28;20022;-83
2023/11/23 11:25:40;;;;;;;11.48;4.03;;;12.30;99.90;;;;;;5008311;28;20179;-83
2023/11/23 11:28:14;;;;;;;12.93;4.55;;;12.30;99.90;;;;;;5025622;28;20068;-82
2023/11/23 11:30:40;;;;;;;12.20;4.57;;;12.30;99.90;;;;;;5039827;28;20032;-83
2023/11/23 11:33:11;;;;;;;12.65;4.15;;;12.30;99.90;;;;;;5008643;28;20088;-83
2023/11/23 11:35:47;;;;;;;11.95;4.57;;;12.30;99.90;;;;;;5006831;28;20025;-83
2023/11/23 11:38:17;;;;;;;13.80;4.65;;;12.30;99.90;;;;;;5041033;28;20018;-83
2023/11/23 11:40:46;;;;;;;12.43;5.28;;;12.30;99.90;;;;;;5040553;28;20018;-82
2023/11/23 11:43:14;;;;;;;13.55;4.57;;;12.30;99.90;;;;;;5024884;28;20026;-83
2023/11/23 11:45:41;;;;;;;13.18;4.05;;;12.30;99.90;;;;;;5008236;28;20033;-83
2023/11/23 11:48:07;;;;;;;12.93;3.92;;;12.30;99.90;;;;;;5039561;28;20033;-83
2023/11/23 11:50:32;;;;;;;13.68;4.43;;;12.30;99.90;;;;;;5008369;28;20026;-84
2023/11/23 11:52:58;;;;;;;7.35;3.28;;;12.30;99.90;;;;;;5006559;28;20413;-83
2023/11/23 11:55:26;;;;;;;7.47;3.92;;;12.30;99.90;;;;;;5006980;28;20513;-83
2023/11/23 11:57:52;;;;;;;9.80;4.05;;;12.30;99.90;;;;;;5007541;28;20069;-84
2023/11/23 12:00:18;;;;;;;11.68;3.50;;;12.30;99.90;;;;;;5007043;28;20025;-82
2023/11/23 12:02:44;;;;;;;8.25;3.65;;;12.30;99.90;;;;;;5026095;28;20029;-83
2023/11/23 12:05:10;;;;;;;9.63;3.58;;;12.40;99.90;;;;;;5005874;28;20030;-82
2023/11/23 12:07:35;;;;;;;9.00;2.92;;;12.40;99.90;;;;;;5007506;28;20038;-83
2023/11/23 12:10:02;;;;;;;9.07;3.10;;;12.40;99.90;;;;;;5006580;28;20176;-83
2023/11/23 12:12:28;;;;;;;10.18;2.03;;;12.40;99.90;;;;;;5007897;28;20061;-83
2023/11/23 12:14:58;;;;;;;6.15;2.20;;;12.50;99.90;;;;;;5007213;28;20025;-83
2023/11/23 12:17:24;;;;;;;14.00;3.15;;;12.40;99.90;;;;;;5038934;28;20038;-83
2023/11/23 12:19:54;;;;;;;10.15;2.50;;;12.50;99.90;;;;;;5007626;28;20026;-83
2023/11/23 12:22:27;;;;;;;8.95;2.15;;;12.60;99.90;;;;;;5038880;28;20042;-83
2023/11/23 12:24:55;;;;;;;7.53;2.13;;;12.60;99.90;;;;;;5040524;28;20025;-83
2023/11/23 12:27:20;;;;;;;7.65;1.80;;;12.60;99.90;;;;;;5005666;28;20029;-83
2023/11/23 12:29:46;;;;;;;12.80;2.53;;;12.60;99.90;;;;;;5006851;28;20092;-83